createdAt,value
2018-06-22T00:00:10.168Z,1011.90
2018-06-22T00:01:10.178Z,1011.88
2018-06-22T00:02:10.226Z,1011.89
2018-06-22T00:03:10.173Z,1011.89
2018-06-22T00:04:10.198Z,1011.91
2018-06-22T00:05:10.203Z,1011.93
2018-06-22T00:06:10.221Z,1011.90
2018-06-22T00:07:10.262Z,1011.91
2018-06-22T00:08:10.253Z,1011.92
2018-06-22T00:09:10.301Z,1011.92
2018-06-22T00:10:10.304Z,1011.88
2018-06-22T00:11:10.264Z,1011.87
2018-06-22T00:12:10.310Z,1011.87
2018-06-22T00:13:10.305Z,1011.91
2018-06-22T00:14:10.302Z,1011.90
2018-06-22T00:15:10.331Z,1011.90
2018-06-22T00:16:10.361Z,1011.87
2018-06-22T00:17:10.322Z,1011.93
2018-06-22T00:18:10.376Z,1011.90
2018-06-22T00:19:10.377Z,1011.90
2018-06-22T00:20:10.400Z,1011.92
2018-06-22T00:21:10.394Z,1011.86
2018-06-22T00:22:10.377Z,1011.90
2018-06-22T00:23:10.424Z,1011.91
2018-06-22T00:24:10.435Z,1011.87
2018-06-22T00:25:10.471Z,1011.88
2018-06-22T00:26:10.434Z,1011.88
2018-06-22T00:27:10.444Z,1011.88
2018-06-22T00:28:10.441Z,1011.89
2018-06-22T00:29:10.452Z,1011.89
2018-06-22T00:30:10.512Z,1011.90
2018-06-22T00:31:10.496Z,1011.87
2018-06-22T00:32:10.571Z,1011.90
2018-06-22T00:33:10.504Z,1011.91
2018-06-22T00:34:10.512Z,1011.90
2018-06-22T00:35:10.557Z,1011.87
2018-06-22T00:36:10.594Z,1011.87
2018-06-22T00:37:10.545Z,1011.92
2018-06-22T00:38:10.574Z,1011.85
2018-06-22T00:39:10.573Z,1011.92
2018-06-22T00:40:10.643Z,1011.87
2018-06-22T00:41:10.630Z,1011.88
2018-06-22T00:42:10.606Z,1011.86
2018-06-22T00:43:10.622Z,1011.91
2018-06-22T00:44:18.169Z,1011.82
2018-06-22T00:45:10.646Z,1011.82
2018-06-22T00:46:10.678Z,1011.83
2018-06-22T00:47:10.668Z,1011.80
2018-06-22T00:48:10.721Z,1011.85
2018-06-22T00:49:10.896Z,1011.83
2018-06-22T00:50:10.696Z,1011.81
2018-06-22T00:51:10.705Z,1011.76
2018-06-22T00:52:10.713Z,1011.69
2018-06-22T00:53:11.326Z,1011.78
2018-06-22T00:54:10.733Z,1011.78
2018-06-22T00:55:10.747Z,1011.76
2018-06-22T00:56:10.795Z,1011.75
2018-06-22T00:57:10.771Z,1011.65
2018-06-22T00:58:10.772Z,1011.67
2018-06-22T00:59:10.782Z,1011.71
2018-06-22T01:00:10.802Z,1011.72
2018-06-22T01:01:10.838Z,1011.74
2018-06-22T01:02:10.827Z,1011.65
2018-06-22T01:03:10.838Z,1011.67
2018-06-22T01:04:10.837Z,1011.62
2018-06-22T01:05:10.886Z,1011.64
2018-06-22T01:06:10.914Z,1011.68
2018-06-22T01:07:10.866Z,1011.62
2018-06-22T01:08:10.904Z,1011.64
2018-06-22T01:09:10.903Z,1011.56
2018-06-22T01:10:10.919Z,1011.60
2018-06-22T01:11:10.960Z,1011.54
2018-06-22T01:12:10.933Z,1011.59
2018-06-22T01:13:10.935Z,1011.54
2018-06-22T01:14:10.944Z,1011.49
2018-06-22T01:15:10.965Z,1011.56
2018-06-22T01:16:11.009Z,1011.52
2018-06-22T01:17:11.009Z,1011.51
2018-06-22T01:18:10.988Z,1011.51
2018-06-22T01:19:10.999Z,1011.58
2018-06-22T01:20:11.017Z,1011.55
2018-06-22T01:21:11.029Z,1011.58
2018-06-22T01:22:11.143Z,1011.52
2018-06-22T01:23:11.052Z,1011.53
2018-06-22T01:24:11.049Z,1011.55
2018-06-22T01:25:11.071Z,1011.63
2018-06-22T01:26:11.071Z,1011.57
2018-06-22T01:27:11.113Z,1011.60
2018-06-22T01:28:11.112Z,1011.55
2018-06-22T01:29:11.144Z,1011.60
2018-06-22T01:30:11.113Z,1011.54
2018-06-22T01:31:11.128Z,1011.59
2018-06-22T01:32:11.142Z,1011.52
2018-06-22T01:33:11.152Z,1011.52
2018-06-22T01:34:11.189Z,1011.47
2018-06-22T01:35:11.191Z,1011.52
2018-06-22T01:36:11.213Z,1011.56
2018-06-22T01:37:11.186Z,1011.59
2018-06-22T01:38:11.215Z,1011.56
2018-06-22T01:39:11.335Z,1011.60
2018-06-22T01:40:11.247Z,1011.54
2018-06-22T01:41:11.254Z,1011.55
2018-06-22T01:42:11.265Z,1011.51
2018-06-22T01:43:11.268Z,1011.52
2018-06-22T01:44:11.290Z,1011.51
2018-06-22T01:45:11.317Z,1011.54
2018-06-22T01:46:11.279Z,1011.54
2018-06-22T01:47:11.295Z,1011.52
2018-06-22T01:48:11.316Z,1011.50
2018-06-22T01:49:11.351Z,1011.51
2018-06-22T01:50:11.376Z,1011.50
2018-06-22T01:51:11.343Z,1011.49
2018-06-22T01:52:11.356Z,1011.50
2018-06-22T01:53:11.361Z,1011.46
2018-06-22T01:54:11.369Z,1011.50
2018-06-22T01:55:11.436Z,1011.43
2018-06-22T01:56:11.402Z,1011.50
2018-06-22T01:57:11.440Z,1011.54
2018-06-22T01:58:11.429Z,1011.52
2018-06-22T01:59:11.421Z,1011.48
2018-06-22T02:00:11.455Z,1011.49
2018-06-22T02:01:11.459Z,1011.47
2018-06-22T02:02:11.523Z,1011.52
2018-06-22T02:03:11.471Z,1011.49
2018-06-22T02:04:11.491Z,1011.52
2018-06-22T02:05:11.499Z,1011.48
2018-06-22T02:06:11.560Z,1011.49
2018-06-22T02:07:11.561Z,1011.48
2018-06-22T02:08:11.556Z,1011.59
2018-06-22T02:09:11.541Z,1011.53
2018-06-22T02:10:11.566Z,1011.49
2018-06-22T02:11:11.561Z,1011.57
2018-06-22T02:12:11.579Z,1011.48
2018-06-22T02:13:11.609Z,1011.56
2018-06-22T02:14:11.592Z,1011.47
2018-06-22T02:15:11.655Z,1011.45
2018-06-22T02:16:11.606Z,1011.45
2018-06-22T02:17:11.625Z,1011.45
2018-06-22T02:18:11.669Z,1011.52
2018-06-22T02:19:11.638Z,1011.49
2018-06-22T02:20:11.658Z,1011.53
2018-06-22T02:21:11.686Z,1011.52
2018-06-22T02:22:11.702Z,1011.54
2018-06-22T02:23:11.690Z,1011.53
2018-06-22T02:24:11.717Z,1011.48
2018-06-22T02:25:11.715Z,1011.52
2018-06-22T02:26:11.733Z,1011.50
2018-06-22T02:27:11.789Z,1011.43
2018-06-22T02:28:11.748Z,1011.48
2018-06-22T02:29:11.749Z,1011.48
2018-06-22T02:30:11.777Z,1011.42
2018-06-22T02:31:11.774Z,1011.44
2018-06-22T02:32:11.835Z,1011.35
2018-06-22T02:33:11.788Z,1011.42
2018-06-22T02:34:11.808Z,1011.43
2018-06-22T02:35:11.853Z,1011.38
2018-06-22T02:36:11.813Z,1011.47
2018-06-22T02:37:11.864Z,1011.44
2018-06-22T02:38:11.862Z,1011.44
2018-06-22T02:39:11.916Z,1011.46
2018-06-22T02:40:11.869Z,1011.43
2018-06-22T02:41:11.889Z,1011.46
2018-06-22T02:42:11.893Z,1011.50
2018-06-22T02:43:11.887Z,1011.42
2018-06-22T02:44:11.923Z,1011.43
2018-06-22T02:45:11.964Z,1011.39
2018-06-22T02:46:11.917Z,1011.43
2018-06-22T02:47:11.931Z,1011.41
2018-06-22T02:48:11.989Z,1011.45
2018-06-22T02:49:11.954Z,1011.38
2018-06-22T02:50:12.014Z,1011.42
2018-06-22T02:51:11.988Z,1011.32
2018-06-22T02:52:12.007Z,1011.49
2018-06-22T02:53:12.011Z,1011.44
2018-06-22T02:54:12.012Z,1011.36
2018-06-22T02:55:12.095Z,1011.35
2018-06-22T02:56:12.064Z,1011.43
2018-06-22T02:57:12.046Z,1011.36
2018-06-22T02:58:12.097Z,1011.36
2018-06-22T02:59:12.066Z,1011.42
2018-06-22T03:00:12.084Z,1011.42
2018-06-22T03:01:12.084Z,1011.32
2018-06-22T03:02:12.138Z,1011.36
2018-06-22T03:03:12.142Z,1011.38
2018-06-22T03:04:12.127Z,1011.36
2018-06-22T03:05:12.125Z,1011.29
2018-06-22T03:06:12.143Z,1011.36
2018-06-22T03:07:12.181Z,1011.33
2018-06-22T03:08:12.167Z,1011.35
2018-06-22T03:09:12.179Z,1011.37
2018-06-22T03:10:12.193Z,1011.38
2018-06-22T03:11:12.187Z,1011.35
2018-06-22T03:12:12.231Z,1011.38
2018-06-22T03:13:12.239Z,1011.33
2018-06-22T03:14:12.223Z,1011.35
2018-06-22T03:15:12.231Z,1011.41
2018-06-22T03:16:12.251Z,1011.34
2018-06-22T03:17:12.281Z,1011.37
2018-06-22T03:18:12.278Z,1011.35
2018-06-22T03:19:12.302Z,1011.35
2018-06-22T03:20:12.339Z,1011.37
2018-06-22T03:21:12.299Z,1011.38
2018-06-22T03:22:12.324Z,1011.36
2018-06-22T03:23:12.322Z,1011.28
2018-06-22T03:24:12.344Z,1011.41
2018-06-22T03:25:12.345Z,1011.37
2018-06-22T03:26:12.389Z,1011.35
2018-06-22T03:27:12.400Z,1011.32
2018-06-22T03:28:12.368Z,1011.35
2018-06-22T03:29:12.374Z,1011.30
2018-06-22T03:30:12.422Z,1011.41
2018-06-22T03:31:12.413Z,1011.35
2018-06-22T03:32:12.467Z,1011.33
2018-06-22T03:33:12.432Z,1011.35
2018-06-22T03:34:12.440Z,1011.36
2018-06-22T03:35:12.439Z,1011.35
2018-06-22T03:36:12.494Z,1011.30
2018-06-22T03:37:12.518Z,1011.36
2018-06-22T03:38:12.483Z,1011.25
2018-06-22T03:39:12.490Z,1011.25
2018-06-22T03:40:12.502Z,1011.33
2018-06-22T03:41:12.506Z,1011.30
2018-06-22T03:42:12.551Z,1011.32
2018-06-22T03:43:12.520Z,1011.39
2018-06-22T03:44:12.580Z,1011.34
2018-06-22T03:45:12.543Z,1011.35
2018-06-22T03:46:12.558Z,1011.38
2018-06-22T03:47:12.576Z,1011.42
2018-06-22T03:48:12.591Z,1011.35
2018-06-22T03:49:12.621Z,1011.38
2018-06-22T03:50:12.628Z,1011.39
2018-06-22T03:51:12.613Z,1011.33
2018-06-22T03:52:12.641Z,1011.37
2018-06-22T03:53:12.633Z,1011.40
2018-06-22T03:54:12.638Z,1011.43
2018-06-22T03:55:12.701Z,1011.37
2018-06-22T03:56:12.716Z,1011.41
2018-06-22T03:57:12.680Z,1011.39
2018-06-22T03:58:12.712Z,1011.45
2018-06-22T03:59:12.707Z,1011.47
2018-06-22T04:00:12.728Z,1011.38
2018-06-22T04:01:12.746Z,1011.46
2018-06-22T04:02:12.735Z,1011.34
2018-06-22T04:03:13.698Z,1011.38
2018-06-22T04:04:12.746Z,1011.40
2018-06-22T04:05:12.761Z,1011.38
2018-06-22T04:06:12.797Z,1011.31
2018-06-22T04:07:12.778Z,1011.33
2018-06-22T04:08:12.844Z,1011.33
2018-06-22T04:09:12.837Z,1011.28
2018-06-22T04:10:12.882Z,1011.31
2018-06-22T04:11:12.837Z,1011.30
2018-06-22T04:12:12.869Z,1011.30
2018-06-22T04:13:12.855Z,1011.32
2018-06-22T04:14:12.861Z,1011.32
2018-06-22T04:15:12.878Z,1011.35
2018-06-22T04:16:12.888Z,1011.33
2018-06-22T04:17:12.936Z,1011.31
2018-06-22T04:18:12.889Z,1011.29
2018-06-22T04:19:12.906Z,1011.28
2018-06-22T04:20:12.918Z,1011.31
2018-06-22T04:21:12.953Z,1011.35
2018-06-22T04:22:12.936Z,1011.30
2018-06-22T04:23:12.960Z,1011.33
2018-06-22T04:24:12.992Z,1011.38
2018-06-22T04:25:12.978Z,1011.32
2018-06-22T04:26:13.033Z,1011.32
2018-06-22T04:27:12.998Z,1011.36
2018-06-22T04:28:13.042Z,1011.36
2018-06-22T04:29:13.013Z,1011.39
2018-06-22T04:30:13.031Z,1011.31
2018-06-22T04:31:13.036Z,1011.23
2018-06-22T04:32:13.051Z,1011.35
2018-06-22T04:33:13.107Z,1011.34
2018-06-22T04:34:13.072Z,1011.35
2018-06-22T04:35:13.073Z,1011.35
2018-06-22T04:36:13.112Z,1011.36
2018-06-22T04:37:13.173Z,1011.34
2018-06-22T04:38:13.121Z,1011.33
2018-06-22T04:39:13.130Z,1011.25
2018-06-22T04:40:13.138Z,1011.34
2018-06-22T04:41:13.140Z,1011.31
2018-06-22T04:42:13.206Z,1011.30
2018-06-22T04:43:13.213Z,1011.24
2018-06-22T04:44:13.241Z,1011.27
2018-06-22T04:45:13.182Z,1011.26
2018-06-22T04:46:13.212Z,1011.23
2018-06-22T04:47:13.234Z,1011.29
2018-06-22T04:48:13.255Z,1011.27
2018-06-22T04:49:13.259Z,1011.25
2018-06-22T04:50:13.232Z,1011.23
2018-06-22T04:51:13.258Z,1011.23
2018-06-22T04:52:13.272Z,1011.27
2018-06-22T04:53:13.293Z,1011.24
2018-06-22T04:54:13.292Z,1011.24
2018-06-22T04:55:13.308Z,1011.26
2018-06-22T04:56:13.436Z,1011.23
2018-06-22T04:57:13.313Z,1011.28
2018-06-22T04:58:13.315Z,1011.23
2018-06-22T04:59:13.325Z,1011.27
2018-06-22T05:00:13.363Z,1011.28
2018-06-22T05:01:13.394Z,1011.32
2018-06-22T05:02:13.360Z,1011.22
2018-06-22T05:03:13.379Z,1011.29
2018-06-22T05:04:13.431Z,1011.28
2018-06-22T05:05:13.400Z,1011.26
2018-06-22T05:06:13.544Z,1011.27
2018-06-22T05:07:13.425Z,1011.30
2018-06-22T05:08:13.449Z,1011.30
2018-06-22T05:09:13.491Z,1011.28
2018-06-22T05:10:13.460Z,1011.31
2018-06-22T05:11:13.457Z,1011.29
2018-06-22T05:12:13.593Z,1011.30
2018-06-22T05:13:13.497Z,1011.25
2018-06-22T05:14:13.522Z,1011.25
2018-06-22T05:15:13.533Z,1011.20
2018-06-22T05:16:13.533Z,1011.31
2018-06-22T05:17:13.580Z,1011.24
2018-06-22T05:18:13.550Z,1011.30
2018-06-22T05:19:13.559Z,1011.33
2018-06-22T05:20:13.572Z,1011.30
2018-06-22T05:21:13.576Z,1011.27
2018-06-22T05:22:13.620Z,1011.31
2018-06-22T05:23:13.642Z,1011.32
2018-06-22T05:24:13.596Z,1011.34
2018-06-22T05:25:13.613Z,1011.27
2018-06-22T05:26:13.622Z,1011.27
2018-06-22T05:27:13.627Z,1011.32
2018-06-22T05:28:13.701Z,1011.37
2018-06-22T05:29:13.659Z,1011.29
2018-06-22T05:30:13.684Z,1011.24
2018-06-22T05:31:13.685Z,1011.32
2018-06-22T05:32:13.754Z,1011.33
2018-06-22T05:33:13.729Z,1011.32
2018-06-22T05:34:13.722Z,1011.27
2018-06-22T05:35:13.721Z,1011.26
2018-06-22T05:36:13.773Z,1011.32
2018-06-22T05:37:13.763Z,1011.23
2018-06-22T05:38:13.779Z,1011.23
2018-06-22T05:39:13.776Z,1011.26
2018-06-22T05:40:13.863Z,1011.22
2018-06-22T05:41:13.796Z,1011.26
2018-06-22T05:42:13.799Z,1011.27
2018-06-22T05:43:13.821Z,1011.31
2018-06-22T05:44:13.832Z,1011.27
2018-06-22T05:45:13.876Z,1011.28
2018-06-22T05:46:13.835Z,1011.25
2018-06-22T05:47:13.846Z,1011.31
2018-06-22T05:48:13.868Z,1011.25
2018-06-22T05:49:13.864Z,1011.33
2018-06-22T05:50:13.914Z,1011.27
2018-06-22T05:51:13.918Z,1011.31
2018-06-22T05:52:13.912Z,1011.38
2018-06-22T05:53:13.922Z,1011.35
2018-06-22T05:54:13.932Z,1011.29
2018-06-22T05:55:13.955Z,1011.31
2018-06-22T05:56:13.997Z,1011.34
2018-06-22T05:57:13.962Z,1011.29
2018-06-22T05:58:13.974Z,1011.31
2018-06-22T05:59:13.985Z,1011.33
2018-06-22T06:00:14.029Z,1011.37
2018-06-22T06:01:14.045Z,1011.26
2018-06-22T06:02:14.048Z,1011.35
2018-06-22T06:03:14.037Z,1011.32
2018-06-22T06:04:14.032Z,1011.32
2018-06-22T06:05:14.043Z,1011.35
2018-06-22T06:06:14.064Z,1011.38
2018-06-22T06:07:14.101Z,1011.38
2018-06-22T06:08:14.113Z,1011.38
2018-06-22T06:09:14.107Z,1011.32
2018-06-22T06:10:14.100Z,1011.34
2018-06-22T06:11:14.166Z,1011.31
2018-06-22T06:12:14.125Z,1011.30
2018-06-22T06:13:14.163Z,1011.36
2018-06-22T06:14:14.147Z,1011.32
2018-06-22T06:15:14.172Z,1011.32
2018-06-22T06:16:14.188Z,1011.23
2018-06-22T06:17:14.183Z,1011.35
2018-06-22T06:18:14.178Z,1011.26
2018-06-22T06:19:14.256Z,1011.29
2018-06-22T06:20:14.215Z,1011.25
2018-06-22T06:21:14.224Z,1011.34
2018-06-22T06:22:14.231Z,1011.31
2018-06-22T06:23:14.233Z,1011.30
2018-06-22T06:24:14.290Z,1011.26
2018-06-22T06:25:14.268Z,1011.27
2018-06-22T06:26:14.281Z,1011.31
2018-06-22T06:27:14.360Z,1011.32
2018-06-22T06:28:14.297Z,1011.36
2018-06-22T06:29:14.330Z,1011.29
2018-06-22T06:30:14.325Z,1011.37
2018-06-22T06:31:14.376Z,1011.33
2018-06-22T06:32:14.345Z,1011.31
2018-06-22T06:33:14.466Z,1011.34
2018-06-22T06:34:14.397Z,1011.32
2018-06-22T06:35:14.389Z,1011.34
2018-06-22T06:36:14.395Z,1011.30
2018-06-22T06:37:14.400Z,1011.28
2018-06-22T06:38:14.446Z,1011.24
2018-06-22T06:39:14.419Z,1011.20
2018-06-22T06:40:14.492Z,1011.28
2018-06-22T06:41:14.453Z,1011.30
2018-06-22T06:42:14.447Z,1011.30
2018-06-22T06:43:14.460Z,1011.34
2018-06-22T06:44:14.494Z,1011.34
2018-06-22T06:45:14.539Z,1011.32
2018-06-22T06:46:14.502Z,1011.33
2018-06-22T06:47:14.504Z,1011.27
2018-06-22T06:48:14.512Z,1011.35
2018-06-22T06:49:14.605Z,1011.34
2018-06-22T06:50:14.529Z,1011.28
2018-06-22T06:51:14.598Z,1011.38
2018-06-22T06:52:14.584Z,1011.33
2018-06-22T06:53:14.603Z,1011.32
2018-06-22T06:54:14.645Z,1011.35
2018-06-22T06:55:14.596Z,1011.36
2018-06-22T06:56:14.603Z,1011.32
2018-06-22T06:57:14.612Z,1011.29
2018-06-22T06:58:14.638Z,1011.30
2018-06-22T06:59:14.686Z,1011.32
2018-06-22T07:00:14.652Z,1011.30
2018-06-22T07:01:14.662Z,1011.27
2018-06-22T07:02:14.705Z,1011.31
2018-06-22T07:03:14.714Z,1011.34
2018-06-22T07:04:14.700Z,1011.28
2018-06-22T07:05:14.708Z,1011.35
2018-06-22T07:06:14.709Z,1011.35
2018-06-22T07:07:14.756Z,1011.35
2018-06-22T07:08:14.734Z,1011.34
2018-06-22T07:09:14.759Z,1011.39
2018-06-22T07:10:14.772Z,1011.39
2018-06-22T07:11:14.775Z,1011.39
2018-06-22T07:12:14.808Z,1011.41
2018-06-22T07:13:14.797Z,1011.43
2018-06-22T07:14:14.799Z,1011.39
2018-06-22T07:15:14.810Z,1011.33
2018-06-22T07:16:14.836Z,1011.43
2018-06-22T07:17:15.020Z,1011.49
2018-06-22T07:18:14.854Z,1011.47
2018-06-22T07:19:14.892Z,1011.49
2018-06-22T07:20:14.877Z,1011.55
2018-06-22T07:21:14.902Z,1011.59
2018-06-22T07:22:14.894Z,1011.55
2018-06-22T07:23:15.011Z,1011.49
2018-06-22T07:24:14.920Z,1011.58
2018-06-22T07:25:14.930Z,1011.58
2018-06-22T07:26:14.944Z,1011.55
2018-06-22T07:27:14.944Z,1011.57
2018-06-22T07:28:15.043Z,1011.58
2018-06-22T07:29:14.969Z,1011.61
2018-06-22T07:30:15.036Z,1011.57
2018-06-22T07:31:15.156Z,1011.55
2018-06-22T07:32:15.009Z,1011.60
2018-06-22T07:33:15.017Z,1011.58
2018-06-22T07:34:15.023Z,1011.58
2018-06-22T07:35:15.077Z,1011.57
2018-06-22T07:36:15.047Z,1011.60
2018-06-22T07:37:15.069Z,1011.63
2018-06-22T07:38:15.075Z,1011.59
2018-06-22T07:39:15.124Z,1011.60
2018-06-22T07:40:15.106Z,1011.61
2018-06-22T07:41:15.104Z,1011.58
2018-06-22T07:42:15.126Z,1011.60
2018-06-22T07:43:15.140Z,1011.63
2018-06-22T07:44:15.196Z,1011.59
2018-06-22T07:45:15.188Z,1011.60
2018-06-22T07:46:15.189Z,1011.63
2018-06-22T07:47:15.185Z,1011.59
2018-06-22T07:48:15.195Z,1011.58
2018-06-22T07:49:15.242Z,1011.52
2018-06-22T07:50:15.222Z,1011.59
2018-06-22T07:51:15.250Z,1011.67
2018-06-22T07:52:15.242Z,1011.63
2018-06-22T07:53:15.271Z,1011.60
2018-06-22T07:54:15.255Z,1011.66
2018-06-22T07:55:15.275Z,1011.67
2018-06-22T07:56:15.318Z,1011.63
2018-06-22T07:57:15.303Z,1011.70
2018-06-22T07:58:15.301Z,1011.65
2018-06-22T07:59:15.308Z,1011.70
2018-06-22T08:00:15.326Z,1011.68
2018-06-22T08:01:15.366Z,1011.71
2018-06-22T08:02:15.379Z,1011.72
2018-06-22T08:03:15.410Z,1011.77
2018-06-22T08:04:15.372Z,1011.73
2018-06-22T08:05:15.459Z,1011.75
2018-06-22T08:06:15.446Z,1011.78
2018-06-22T08:07:15.405Z,1011.78
2018-06-22T08:08:15.496Z,1011.78
2018-06-22T08:09:15.421Z,1011.72
2018-06-22T08:10:15.452Z,1011.77
2018-06-22T08:11:15.458Z,1011.80
2018-06-22T08:12:15.472Z,1011.76
2018-06-22T08:13:15.466Z,1011.80
2018-06-22T08:14:15.538Z,1011.76
2018-06-22T08:15:15.500Z,1011.79
2018-06-22T08:16:15.588Z,1011.82
2018-06-22T08:17:15.541Z,1011.82
2018-06-22T08:18:15.522Z,1011.83
2018-06-22T08:19:15.558Z,1011.86
2018-06-22T08:20:15.783Z,1011.88
2018-06-22T08:21:15.574Z,1011.95
2018-06-22T08:22:15.587Z,1011.97
2018-06-22T08:23:15.621Z,1011.97
2018-06-22T08:24:15.599Z,1011.98
2018-06-22T08:25:15.604Z,1011.99
2018-06-22T08:26:15.647Z,1011.98
2018-06-22T08:27:15.662Z,1012.02
2018-06-22T08:28:15.687Z,1012.07
2018-06-22T08:29:15.647Z,1011.97
2018-06-22T08:30:15.819Z,1012.02
2018-06-22T08:31:15.713Z,1012.08
2018-06-22T08:32:15.814Z,1012.04
2018-06-22T08:33:15.702Z,1012.02
2018-06-22T08:34:15.716Z,1011.99
2018-06-22T08:35:15.738Z,1012.12
2018-06-22T08:36:15.729Z,1012.08
2018-06-22T08:37:15.776Z,1012.20
2018-06-22T08:38:15.741Z,1012.12
2018-06-22T08:39:15.764Z,1012.06
2018-06-22T08:40:15.777Z,1012.12
2018-06-22T08:41:15.814Z,1012.13
2018-06-22T08:42:15.880Z,1012.17
2018-06-22T08:43:15.812Z,1012.13
2018-06-22T08:44:15.848Z,1012.13
2018-06-22T08:45:15.841Z,1012.11
2018-06-22T08:46:15.834Z,1012.11
2018-06-22T08:47:15.838Z,1012.13
2018-06-22T08:48:15.987Z,1012.15
2018-06-22T08:49:15.908Z,1012.13
2018-06-22T08:50:15.898Z,1012.16
2018-06-22T08:51:15.970Z,1012.17
2018-06-22T08:52:15.941Z,1012.12
2018-06-22T08:53:15.907Z,1012.17
2018-06-22T08:54:15.982Z,1012.20
2018-06-22T08:55:15.943Z,1012.17
2018-06-22T08:56:15.954Z,1012.24
2018-06-22T08:57:15.963Z,1012.25
2018-06-22T08:58:16.023Z,1012.22
2018-06-22T08:59:16.009Z,1012.22
2018-06-22T09:00:16.035Z,1012.24
2018-06-22T09:01:16.069Z,1012.33
2018-06-22T09:02:16.053Z,1012.36
2018-06-22T09:03:16.034Z,1012.40
2018-06-22T09:04:16.039Z,1012.40
2018-06-22T09:05:16.134Z,1012.41
2018-06-22T09:06:16.059Z,1012.46
2018-06-22T09:07:16.090Z,1012.41
2018-06-22T09:08:16.110Z,1012.44
2018-06-22T09:09:16.109Z,1012.41
2018-06-22T09:10:16.139Z,1012.42
2018-06-22T09:11:16.136Z,1012.40
2018-06-22T09:12:16.138Z,1012.37
2018-06-22T09:13:16.142Z,1012.36
2018-06-22T09:14:16.161Z,1012.38
2018-06-22T09:15:16.160Z,1012.32
2018-06-22T09:16:16.310Z,1012.32
2018-06-22T09:17:16.381Z,1012.26
2018-06-22T09:18:16.201Z,1012.26
2018-06-22T09:19:16.208Z,1012.25
2018-06-22T09:20:16.234Z,1012.25
2018-06-22T09:21:16.248Z,1012.22
2018-06-22T09:22:16.291Z,1012.23
2018-06-22T09:23:16.250Z,1012.21
2018-06-22T09:24:16.310Z,1012.24
2018-06-22T09:25:16.379Z,1012.23
2018-06-22T09:26:16.298Z,1012.15
2018-06-22T09:27:16.366Z,1012.15
2018-06-22T09:28:17.236Z,1012.15
2018-06-22T09:29:16.349Z,1012.15
2018-06-22T09:30:16.349Z,1012.20
2018-06-22T09:31:16.378Z,1012.16
2018-06-22T09:32:16.535Z,1012.18
2018-06-22T09:33:16.410Z,1012.20
2018-06-22T09:34:16.387Z,1012.17
2018-06-22T09:35:16.396Z,1012.17
2018-06-22T09:36:16.446Z,1012.22
2018-06-22T09:37:16.420Z,1012.24
2018-06-22T09:38:16.422Z,1012.26
2018-06-22T09:39:16.518Z,1012.36
2018-06-22T09:40:16.460Z,1012.31
2018-06-22T09:41:16.472Z,1012.34
2018-06-22T09:42:16.469Z,1012.46
2018-06-22T09:43:16.505Z,1012.50
2018-06-22T09:44:16.549Z,1012.38
2018-06-22T09:45:16.514Z,1012.39
2018-06-22T09:46:16.540Z,1012.46
2018-06-22T09:47:16.543Z,1012.42
2018-06-22T09:48:16.562Z,1012.45
2018-06-22T09:49:16.584Z,1012.40
2018-06-22T09:50:16.565Z,1012.43
2018-06-22T09:51:16.589Z,1012.48
2018-06-22T09:52:16.624Z,1012.44
2018-06-22T09:53:16.642Z,1012.42
2018-06-22T09:54:16.612Z,1012.47
2018-06-22T09:55:16.744Z,1012.43
2018-06-22T09:56:16.638Z,1012.45
2018-06-22T09:57:16.733Z,1012.48
2018-06-22T09:58:16.656Z,1012.47
2018-06-22T09:59:16.667Z,1012.56
2018-06-22T10:00:16.695Z,1012.49
2018-06-22T10:01:16.834Z,1012.46
2018-06-22T10:02:16.775Z,1012.48
2018-06-22T10:03:16.724Z,1012.50
2018-06-22T10:04:16.742Z,1012.42
2018-06-22T10:05:16.749Z,1012.49
2018-06-22T10:06:16.764Z,1012.55
2018-06-22T10:07:16.823Z,1012.46
2018-06-22T10:08:16.807Z,1012.59
2018-06-22T10:09:16.793Z,1012.51
2018-06-22T10:10:16.840Z,1012.55
2018-06-22T10:11:16.883Z,1012.55
2018-06-22T10:12:16.827Z,1012.56
2018-06-22T10:13:16.849Z,1012.61
2018-06-22T10:14:16.845Z,1012.56
2018-06-22T10:15:16.912Z,1012.63
2018-06-22T10:16:16.898Z,1012.54
2018-06-22T10:17:16.865Z,1012.62
2018-06-22T10:18:16.917Z,1012.56
2018-06-22T10:19:16.917Z,1012.63
2018-06-22T10:20:16.951Z,1012.66
2018-06-22T10:21:16.958Z,1012.62
2018-06-22T10:22:16.958Z,1012.68
2018-06-22T10:23:16.949Z,1012.70
2018-06-22T10:24:17.004Z,1012.82
2018-06-22T10:25:16.958Z,1012.72
2018-06-22T10:26:17.001Z,1012.71
2018-06-22T10:27:17.030Z,1012.73
2018-06-22T10:28:16.998Z,1012.74
2018-06-22T10:29:17.008Z,1012.66
2018-06-22T10:30:17.047Z,1012.75
2018-06-22T10:31:17.048Z,1012.70
2018-06-22T10:32:17.079Z,1012.64
2018-06-22T10:33:17.094Z,1012.62
2018-06-22T10:34:17.078Z,1012.65
2018-06-22T10:35:17.085Z,1012.64
2018-06-22T10:36:17.104Z,1012.60
2018-06-22T10:37:17.119Z,1012.59
2018-06-22T10:38:17.153Z,1012.61
2018-06-22T10:39:17.260Z,1012.58
2018-06-22T10:40:17.234Z,1012.60
2018-06-22T10:41:17.185Z,1012.61
2018-06-22T10:42:17.192Z,1012.61
2018-06-22T10:43:17.177Z,1012.60
2018-06-22T10:44:17.212Z,1012.58
2018-06-22T10:45:17.274Z,1012.60
2018-06-22T10:46:17.221Z,1012.58
2018-06-22T10:47:17.227Z,1012.60
2018-06-22T10:48:17.231Z,1012.56
2018-06-22T10:49:17.324Z,1012.54
2018-06-22T10:50:17.269Z,1012.53
2018-06-22T10:51:17.279Z,1012.53
2018-06-22T10:52:17.300Z,1012.50
2018-06-22T10:53:17.289Z,1012.51
2018-06-22T10:54:17.324Z,1012.51
2018-06-22T10:55:17.369Z,1012.52
2018-06-22T10:56:17.356Z,1012.51
2018-06-22T10:57:17.464Z,1012.51
2018-06-22T10:58:17.357Z,1012.49
2018-06-22T10:59:17.371Z,1012.46
2018-06-22T11:00:18.321Z,1012.46
2018-06-22T11:01:17.493Z,1012.49
2018-06-22T11:02:17.427Z,1012.43
2018-06-22T11:03:17.422Z,1012.40
2018-06-22T11:04:17.441Z,1012.38
2018-06-22T11:05:17.517Z,1012.39
2018-06-22T11:06:17.477Z,1012.38
2018-06-22T11:07:17.458Z,1012.39
2018-06-22T11:08:17.486Z,1012.34
2018-06-22T11:09:17.500Z,1012.38
2018-06-22T11:10:17.547Z,1012.37
2018-06-22T11:11:17.601Z,1012.36
2018-06-22T11:12:17.517Z,1012.40
2018-06-22T11:13:17.522Z,1012.37
2018-06-22T11:14:17.533Z,1012.37
2018-06-22T11:15:17.554Z,1012.37
2018-06-22T11:16:17.588Z,1012.35
2018-06-22T11:17:17.632Z,1012.34
2018-06-22T11:18:17.639Z,1012.35
2018-06-22T11:19:17.614Z,1012.39
2018-06-22T11:20:17.642Z,1012.41
2018-06-22T11:21:17.649Z,1012.37
2018-06-22T11:22:17.853Z,1012.37
2018-06-22T11:23:17.708Z,1012.39
2018-06-22T11:24:17.657Z,1012.35
2018-06-22T11:25:17.717Z,1012.33
2018-06-22T11:26:17.685Z,1012.38
2018-06-22T11:27:18.042Z,1012.44
2018-06-22T11:28:17.720Z,1012.49
2018-06-22T11:29:17.737Z,1012.49
2018-06-22T11:30:17.756Z,1012.48
2018-06-22T11:31:17.940Z,1012.43
2018-06-22T11:32:17.848Z,1012.46
2018-06-22T11:33:17.776Z,1012.47
2018-06-22T11:34:17.785Z,1012.39
2018-06-22T11:35:17.804Z,1012.38
2018-06-22T11:36:17.872Z,1012.38
2018-06-22T11:37:18.009Z,1012.44
2018-06-22T11:38:17.841Z,1012.45
2018-06-22T11:39:17.847Z,1012.45
2018-06-22T11:40:17.875Z,1012.42
2018-06-22T11:41:17.906Z,1012.41
2018-06-22T11:42:17.866Z,1012.48
2018-06-22T11:43:17.924Z,1012.45
2018-06-22T11:44:17.985Z,1012.47
2018-06-22T11:45:17.966Z,1012.44
2018-06-22T11:46:17.932Z,1012.42
2018-06-22T11:47:17.949Z,1012.48
2018-06-22T11:48:18.008Z,1012.49
2018-06-22T11:49:18.166Z,1012.51
2018-06-22T11:50:17.996Z,1012.54
2018-06-22T11:51:18.006Z,1012.58
2018-06-22T11:52:17.982Z,1012.44
2018-06-22T11:53:18.017Z,1012.47
2018-06-22T11:54:18.004Z,1012.57
2018-06-22T11:55:18.042Z,1012.52
2018-06-22T11:56:18.104Z,1012.49
2018-06-22T11:57:18.075Z,1012.46
2018-06-22T11:58:18.051Z,1012.53
2018-06-22T11:59:18.070Z,1012.53
2018-06-22T12:00:18.089Z,1012.54
2018-06-22T12:01:18.215Z,1012.52
2018-06-22T12:02:18.109Z,1012.53
2018-06-22T12:03:18.122Z,1012.57
2018-06-22T12:04:18.278Z,1012.52
2018-06-22T12:05:18.146Z,1012.51